Flight Track Log - Related Links

Times and Time Zones

All times are in EDT time to prevent confusion due to time zone crossing. See the KAP927 flight status page for this flight to view local times or setup timezone preferences in your user account.

Time Position Orientation Groundspeed Altitude Reporting Facility
EDT Latitude Longitude Course Direction KTS MPH feet Rate Location/Type
Thu 06:53:42 PM 43.0725 -74.2022 329° Northwest 142 163 7,700  Level Boston Center
Thu 06:54:42 PM 43.1033 -74.2258 331° Northwest 137 158 8,200 400 Climbing Boston Center
Thu 06:55:42 PM 43.1383 -74.2525 331° Northwest 137 158 8,500 150 Climbing Boston Center
Thu 06:56:42 PM 43.1733 -74.2792 331° Northwest 137 158 8,500  Level Boston Center
Thu 06:57:42 PM 43.2125 -74.3089 331° Northwest 147 169 8,500  Level Boston Center
Thu 06:58:00 PM 43.3286 -74.2874 329° Northwest  Level Estimated
Thu 06:58:42 PM 43.2453 -74.3356 329° Northwest 142 163 8,500  Level Boston Center
Thu 06:59:42 PM 43.2825 -74.3653 330° Northwest 142 163 8,500  Level Boston Center
Thu 07:00:42 PM 43.3194 -74.3922 332° Northwest 142 163 8,500  Level Boston Center
Thu 07:01:42 PM 43.3567 -74.4161 335° Northwest 142 163 8,500  Level Boston Center
Thu 07:02:42 PM 43.3833 -74.4400 327° Northwest 142 163 8,500 50 Level Boston Center
Thu 07:03:42 PM 43.4244 -74.4728 330° Northwest 142 163 8,600 50 Climbing Boston Center
Thu 07:04:42 PM 43.4594 -74.4994 331° Northwest 142 163 8,600  Level Boston Center
Thu 07:05:42 PM 43.4964 -74.5294 330° Northwest 142 163 8,600  Level Boston Center
Thu 07:06:54 PM 43.5394 -74.5625 331° Northwest 142 163 8,600  Level Boston Center
Thu 07:07:54 PM 43.5764 -74.5894 332° Northwest 142 163 8,600  Level Boston Center
Thu 07:08:54 PM 43.6133 -74.6167 332° Northwest 142 163 8,600  Level Boston Center
Thu 07:10:06 PM 43.6483 -74.6439 331° Northwest 142 163 8,600  Level Boston Center
Thu 07:11:06 PM 43.6936 -74.6800 330° Northwest 142 163 8,600  Level Boston Center
Thu 07:12:06 PM 43.7306 -74.7100 330° Northwest 142 163 8,600  Level Boston Center
Thu 07:13:06 PM 43.7675 -74.7372 332° Northwest 142 163 8,600  Level Boston Center
Thu 07:14:06 PM 43.8044 -74.7644 332° Northwest 142 163 8,600  Level Boston Center
Thu 07:15:06 PM 43.8392 -74.7947 328° Northwest 142 163 8,600  Level Boston Center
Thu 07:16:06 PM 43.8742 -74.8219 331° Northwest 142 163 8,600  Level Boston Center
Thu 07:17:06 PM 43.9131 -74.8494 333° Northwest 142 163 8,600  Level Boston Center
Thu 07:18:06 PM 43.9519 -74.8800 331° Northwest 142 163 8,600  Level Boston Center
Thu 07:19:06 PM 43.9889 -74.9103 329° Northwest 142 163 8,600  Level Boston Center
Thu 07:20:06 PM 44.0278 -74.9408 331° Northwest 142 163 8,600 -50 Level Boston Center
Thu 07:21:06 PM 44.0647 -74.9683 332° Northwest 142 163 8,500 -250 Descending Boston Center
Thu 07:22:06 PM 44.1058 -74.9989 332° Northwest 147 169 8,100 -450 Descending Boston Center
Thu 07:23:06 PM 44.1467 -75.0267 334° Northwest 158 182 7,600 -450 Descending Boston Center
Thu 07:24:06 PM 44.1836 -75.0572 329° Northwest 163 188 7,200 -550 Descending Boston Center
Thu 07:25:06 PM 44.2392 -75.0831 342° North 174 200 6,500 -600 Descending Boston Center
Thu 07:26:06 PM 44.2844 -75.1169 332° Northwest 179 206 6,000 -500 Descending Boston Center
Thu 07:27:06 PM 44.3317 -75.1481 335° Northwest 179 206 5,500 -550 Descending Boston Center
Thu 07:28:06 PM 44.3789 -75.1792 335° Northwest 179 206 4,900 -600 Descending Boston Center
Thu 07:29:06 PM 44.4261 -75.2075 337° Northwest 179 206 4,300 -600 Descending Boston Center
Thu 07:30:06 PM 44.4733 -75.2331 339° North 184 212 3,700 -550 Descending Boston Center
Thu 07:31:06 PM 44.5206 -75.2672 333° Northwest 184 212 3,200 -500 Descending Boston Center
Thu 07:32:06 PM 44.5553 -75.2953 330° Northwest 184 212 2,700 -500 Descending Boston Center

Login

Don't have an account? Register now (free) for customized features, flight alerts, and more!